Time;durP1;ratioP1;P1;durP2;ratioP2;P2;SDS_P1;SDS_P2;PMS_P1;PMS_P2;Temp;Humidity;BMP_temperature;BMP_pressure;BME280_temperature;BME280_humidity;BME280_pressure;Samples;Min_cycle;Max_cycle;Signal;HPM_P1;HPM_P2
2020/12/03 00:01:21;;;;;;;42.30;24.47;;;8.90;48.50;;;;;;5093591;28;20211;-64
2020/12/03 00:03:55;;;;;;;44.50;23.70;;;8.90;48.50;;;;;;5091527;28;20211;-64
2020/12/03 00:06:27;;;;;;;48.10;23.90;;;8.90;48.70;;;;;;5090260;28;20220;-64
2020/12/03 00:08:53;;;;;;;49.00;24.67;;;8.90;48.30;;;;;;5091626;28;20190;-64
2020/12/03 00:11:20;;;;;;;40.67;22.37;;;9.00;48.50;;;;;;5094280;28;20228;-65
2020/12/03 00:13:46;;;;;;;45.33;24.23;;;8.90;48.60;;;;;;5093713;28;20534;-64
2020/12/03 00:16:11;;;;;;;46.03;24.27;;;9.00;48.60;;;;;;5090420;28;20217;-64
2020/12/03 00:18:38;;;;;;;48.27;23.53;;;8.90;48.50;;;;;;5090431;28;20278;-64
2020/12/03 00:21:07;;;;;;;46.27;23.87;;;8.90;48.50;;;;;;5091144;28;20199;-64
2020/12/03 00:23:34;;;;;;;46.97;26.27;;;9.00;48.60;;;;;;5093118;28;20332;-64
2020/12/03 00:26:00;;;;;;;44.97;24.13;;;9.00;48.50;;;;;;5089659;28;20232;-64
2020/12/03 00:28:31;;;;;;;47.50;25.77;;;9.00;48.70;;;;;;5089470;28;20291;-64
2020/12/03 00:30:57;;;;;;;44.17;24.83;;;8.90;48.30;;;;;;5090690;28;20191;-64
2020/12/03 00:33:23;;;;;;;47.83;25.63;;;9.00;48.80;;;;;;5092372;28;20296;-64
2020/12/03 00:35:50;;;;;;;42.60;23.37;;;9.00;48.60;;;;;;5091492;28;20224;-64
2020/12/03 00:38:17;;;;;;;45.77;23.07;;;9.00;48.60;;;;;;5088720;28;20289;-64
2020/12/03 00:40:43;;;;;;;47.37;26.00;;;9.00;48.80;;;;;;5087702;28;20186;-64
2020/12/03 00:43:09;;;;;;;45.97;23.93;;;9.00;49.00;;;;;;5092811;28;20755;-65
2020/12/03 00:45:35;;;;;;;46.20;24.27;;;9.00;48.60;;;;;;5092806;28;20898;-64
2020/12/03 00:48:00;;;;;;;43.70;23.17;;;8.90;49.10;;;;;;5090128;28;20214;-64
2020/12/03 00:50:26;;;;;;;48.10;25.40;;;9.00;48.50;;;;;;5087881;28;20291;-64
2020/12/03 00:52:52;;;;;;;47.13;25.97;;;9.00;48.70;;;;;;5089831;28;20277;-64
2020/12/03 00:55:18;;;;;;;46.53;24.53;;;8.90;49.00;;;;;;5092880;28;20236;-65
2020/12/03 00:57:44;;;;;;;47.03;25.37;;;9.00;48.80;;;;;;5090929;28;20199;-64
2020/12/03 01:00:14;;;;;;;44.43;23.73;;;8.90;48.60;;;;;;5085564;28;20193;-63
2020/12/03 01:02:39;;;;;;;43.07;24.87;;;8.90;48.80;;;;;;5087329;28;20181;-64
2020/12/03 01:05:11;;;;;;;46.73;25.07;;;8.90;48.80;;;;;;5088735;28;20201;-64
2020/12/03 01:07:37;;;;;;;45.70;24.47;;;8.90;48.70;;;;;;5091504;28;20239;-64
2020/12/03 01:10:06;;;;;;;42.43;23.03;;;8.90;48.70;;;;;;5089574;28;20611;-65
2020/12/03 01:12:32;;;;;;;50.40;24.53;;;8.90;48.90;;;;;;5089218;28;20192;-64
2020/12/03 01:14:58;;;;;;;46.77;25.37;;;9.00;48.80;;;;;;5091203;28;20213;-64
2020/12/03 01:17:23;;;;;;;44.97;24.13;;;9.00;48.50;;;;;;5091834;28;20243;-64
2020/12/03 01:19:50;;;;;;;45.40;24.47;;;8.90;48.60;;;;;;5091421;28;20182;-64
2020/12/03 01:22:16;;;;;;;41.80;22.47;;;8.90;48.80;;;;;;5089010;28;20253;-65
2020/12/03 01:24:42;;;;;;;45.13;23.90;;;8.90;48.80;;;;;;5088608;28;20979;-64
2020/12/03 01:27:10;;;;;;;46.20;24.63;;;8.90;48.80;;;;;;5091878;28;20272;-64
2020/12/03 01:29:36;;;;;;;46.83;25.73;;;8.90;49.00;;;;;;5091748;27;20199;-64
2020/12/03 01:32:01;;;;;;;45.90;24.33;;;8.90;48.80;;;;;;5089690;28;20214;-65
2020/12/03 01:34:27;;;;;;;45.53;23.07;;;8.90;48.60;;;;;;5088402;28;20244;-64
2020/12/03 01:36:53;;;;;;;46.33;24.47;;;8.80;48.80;;;;;;5107130;27;20351;-64
2020/12/03 01:39:20;;;;;;;46.33;23.90;;;8.90;48.80;;;;;;5090038;28;20199;-64
2020/12/03 01:41:46;;;;;;;45.33;24.70;;;8.80;48.90;;;;;;5091345;28;20655;-64
2020/12/03 01:44:12;;;;;;;49.07;23.87;;;8.80;48.80;;;;;;5088306;28;20189;-65
2020/12/03 01:46:38;;;;;;;47.93;24.13;;;8.90;49.10;;;;;;5087950;28;21053;-64
2020/12/03 01:49:18;;;;;;;45.73;24.13;;;8.90;49.20;;;;;;5090909;28;20667;-64
2020/12/03 01:51:51;;;;;;;43.07;23.33;;;8.90;48.70;;;;;;5089993;28;20196;-64
2020/12/03 01:54:19;;;;;;;46.33;23.67;;;8.90;48.80;;;;;;5092135;28;20211;-64
2020/12/03 01:57:03;;;;;;;47.33;25.33;;;8.90;48.60;;;;;;5091047;28;20202;-64
2020/12/03 01:59:36;;;;;;;45.87;23.83;;;8.90;48.80;;;;;;5087722;28;20454;-65
2020/12/03 02:02:03;;;;;;;50.07;24.67;;;8.90;48.90;;;;;;5090589;28;20189;-65
2020/12/03 02:04:28;;;;;;;47.83;25.53;;;9.00;49.00;;;;;;5091297;28;20238;-64
2020/12/03 02:07:04;;;;;;;45.17;25.43;;;8.90;48.60;;;;;;5089583;28;20681;-64
2020/12/03 02:09:29;;;;;;;47.03;25.47;;;8.90;48.70;;;;;;5086862;28;20979;-64
2020/12/03 02:11:55;;;;;;;46.67;25.83;;;8.90;48.80;;;;;;5089123;28;20188;-65
2020/12/03 02:14:21;;;;;;;48.80;26.63;;;8.90;48.80;;;;;;5090900;28;20767;-64
2020/12/03 02:16:47;;;;;;;50.17;27.20;;;8.90;48.70;;;;;;5090715;28;20203;-65
2020/12/03 02:19:22;;;;;;;47.63;25.63;;;8.80;48.70;;;;;;5085625;28;20239;-64
2020/12/03 02:21:59;;;;;;;52.60;27.23;;;8.80;48.50;;;;;;5087833;28;20183;-64
2020/12/03 02:24:43;;;;;;;53.37;26.63;;;8.90;48.80;;;;;;5091086;28;20187;-64
2020/12/03 02:27:11;;;;;;;50.13;27.47;;;8.90;48.50;;;;;;5087314;28;20828;-64
2020/12/03 02:29:37;;;;;;;48.73;27.87;;;8.90;48.60;;;;;;5087577;28;20201;-63
2020/12/03 02:32:04;;;;;;;50.80;24.67;;;8.80;48.30;;;;;;5071734;28;20187;-64
2020/12/03 02:34:30;;;;;;;48.57;26.60;;;8.70;48.80;;;;;;5090331;28;20209;-64
2020/12/03 02:36:58;;;;;;;52.30;27.20;;;8.80;48.40;;;;;;5087572;28;20874;-64
2020/12/03 02:39:26;;;;;;;48.10;26.50;;;8.80;48.50;;;;;;5086001;28;20265;-64
2020/12/03 02:41:53;;;;;;;49.27;26.67;;;8.80;48.50;;;;;;5087661;28;20196;-64
2020/12/03 02:44:18;;;;;;;53.53;27.70;;;8.90;48.30;;;;;;5088326;28;20592;-64
2020/12/03 02:46:45;;;;;;;48.93;26.53;;;8.90;48.90;;;;;;5089509;28;20210;-64
2020/12/03 02:49:10;;;;;;;52.17;25.93;;;8.80;48.90;;;;;;5085931;28;20715;-65
2020/12/03 02:51:41;;;;;;;49.90;26.33;;;8.80;48.70;;;;;;5086320;28;20191;-64
2020/12/03 02:54:08;;;;;;;53.13;27.90;;;8.60;48.90;;;;;;5089521;28;20199;-64
2020/12/03 02:56:35;;;;;;;53.93;28.87;;;8.60;48.90;;;;;;5089515;27;20236;-65
2020/12/03 02:59:00;;;;;;;65.60;32.60;;;8.60;48.90;;;;;;5086436;28;20244;-64
2020/12/03 03:01:26;;;;;;;62.00;33.87;;;8.50;48.60;;;;;;5086012;28;20179;-67
2020/12/03 03:03:52;;;;;;;57.33;29.10;;;8.40;49.10;;;;;;5084539;28;20187;-65
2020/12/03 03:06:18;;;;;;;58.13;30.23;;;8.60;53.30;;;;;;5086065;28;20994;-65
2020/12/03 03:08:44;;;;;;;62.97;32.90;;;9.00;54.70;;;;;;5086226;28;20226;-64
2020/12/03 03:11:09;;;;;;;73.53;35.77;;;9.30;55.60;;;;;;5088975;28;20203;-66
2020/12/03 03:13:35;;;;;;;66.67;35.03;;;9.40;52.40;;;;;;5090149;28;20528;-66
2020/12/03 03:16:01;;;;;;;71.60;35.80;;;9.30;52.00;;;;;;5086887;28;20242;-63
2020/12/03 03:18:27;;;;;;;78.43;38.43;;;9.20;53.70;;;;;;5085558;28;20185;-63
2020/12/03 03:20:52;;;;;;;85.87;41.70;;;10.00;55.20;;;;;;5085257;28;20201;-62
2020/12/03 03:23:18;;;;;;;86.90;44.17;;;9.70;47.90;;;;;;5089558;28;20182;-63
2020/12/03 03:25:44;;;;;;;79.27;41.80;;;9.40;48.90;;;;;;5089126;28;20188;-63
2020/12/03 03:28:11;;;;;;;84.50;44.67;;;9.20;49.30;;;;;;5103627;28;20231;-62
2020/12/03 03:30:36;;;;;;;89.67;47.27;;;9.10;50.30;;;;;;5087669;28;20242;-63
2020/12/03 03:33:03;;;;;;;88.90;45.03;;;9.10;50.20;;;;;;5086901;28;20183;-62
2020/12/03 03:35:29;;;;;;;96.87;50.23;;;9.10;49.50;;;;;;5085504;28;20224;-63
2020/12/03 03:37:55;;;;;;;86.73;45.57;;;9.10;49.10;;;;;;5086729;28;20209;-63
2020/12/03 16:33:43;;;;;;;78.57;46.57;;;12.60;49.00;;;;;;5054503;28;20523;-58
2020/12/03 16:36:10;;;;;;;80.40;47.33;;;12.60;49.30;;;;;;5051993;28;20182;-59
2020/12/03 16:38:35;;;;;;;69.77;45.87;;;12.60;49.50;;;;;;5033382;28;20198;-59
2020/12/03 16:41:03;;;;;;;68.73;41.13;;;12.70;49.40;;;;;;5033835;28;20584;-59
2020/12/03 16:43:29;;;;;;;67.97;41.43;;;12.70;49.70;;;;;;5034714;28;20211;-59
2020/12/03 16:45:54;;;;;;;67.07;39.47;;;12.70;49.60;;;;;;5034248;28;20191;-64
2020/12/03 16:48:20;;;;;;;59.87;36.27;;;12.80;49.50;;;;;;5034490;28;20204;-59
2020/12/03 16:50:46;;;;;;;61.13;37.37;;;12.80;48.90;;;;;;5034886;28;20199;-59
2020/12/03 16:53:12;;;;;;;61.10;36.10;;;12.80;48.70;;;;;;5035080;28;20990;-59
2020/12/03 16:55:37;;;;;;;55.17;36.10;;;12.80;48.30;;;;;;5035364;28;20215;-65
2020/12/03 16:58:04;;;;;;;56.33;34.30;;;12.80;48.70;;;;;;5035030;28;20219;-59
2020/12/03 17:00:30;;;;;;;59.23;35.30;;;12.90;48.70;;;;;;5034514;28;20189;-59
2020/12/03 17:02:56;;;;;;;60.47;34.60;;;12.90;48.90;;;;;;5034607;28;20220;-59
2020/12/03 17:05:21;;;;;;;53.80;33.50;;;12.90;48.60;;;;;;5034436;28;20194;-59
2020/12/03 17:07:50;;;;;;;49.57;30.53;;;12.90;48.40;;;;;;5034626;28;20947;-59
2020/12/03 17:10:16;;;;;;;47.70;30.47;;;12.90;48.50;;;;;;5033288;28;20524;-59
2020/12/03 17:12:41;;;;;;;49.17;30.20;;;12.90;48.20;;;;;;5034932;28;20909;-59
2020/12/03 17:15:07;;;;;;;52.47;30.70;;;12.90;48.30;;;;;;5034708;28;20205;-59
2020/12/03 17:17:33;;;;;;;46.63;27.57;;;12.90;48.30;;;;;;5033965;28;20857;-59
2020/12/03 17:19:58;;;;;;;43.10;26.67;;;12.90;48.20;;;;;;5015614;28;20194;-58
2020/12/03 17:22:24;;;;;;;43.23;26.93;;;13.00;48.20;;;;;;5034574;28;20682;-59
2020/12/03 17:24:50;;;;;;;39.53;26.33;;;13.00;48.10;;;;;;5033843;28;20192;-59
2020/12/03 17:27:15;;;;;;;38.33;25.27;;;13.00;47.70;;;;;;5033960;28;20853;-59
2020/12/03 17:29:41;;;;;;;39.17;25.57;;;13.00;48.00;;;;;;5032397;28;20651;-59
2020/12/03 17:32:07;;;;;;;35.00;24.67;;;13.00;47.60;;;;;;5032830;28;20212;-60
2020/12/03 17:34:33;;;;;;;37.33;22.47;;;13.00;48.00;;;;;;5024049;28;20236;-59
2020/12/03 17:37:06;;;;;;;37.70;23.17;;;13.00;47.50;;;;;;5013912;28;20819;-59
2020/12/03 17:39:33;;;;;;;52.37;23.30;;;13.00;48.60;;;;;;5013227;28;20196;-59
2020/12/03 17:42:04;;;;;;;43.37;21.60;;;13.00;48.90;;;;;;5014483;28;20645;-60
2020/12/03 17:44:30;;;;;;;42.53;22.27;;;13.10;48.80;;;;;;5004690;28;20272;-59
2020/12/03 17:46:56;;;;;;;37.67;23.03;;;13.10;48.10;;;;;;4999524;28;20272;-59
2020/12/03 17:49:22;;;;;;;38.30;21.67;;;13.10;48.30;;;;;;5000902;28;20598;-59
2020/12/03 17:51:49;;;;;;;38.67;21.33;;;13.10;48.10;;;;;;5001864;28;20243;-60
2020/12/03 17:54:15;;;;;;;29.07;19.80;;;13.10;47.80;;;;;;5002200;28;20677;-59
2020/12/03 17:57:01;;;;;;;31.70;20.70;;;13.10;47.80;;;;;;5000337;28;20254;-59
2020/12/03 17:59:27;;;;;;;35.60;19.00;;;13.10;47.40;;;;;;5000663;28;20196;-59
2020/12/03 18:01:53;;;;;;;30.23;18.70;;;13.10;47.70;;;;;;5001733;28;20189;-59
2020/12/03 18:04:18;;;;;;;32.90;18.63;;;13.00;46.70;;;;;;5001880;28;20262;-59
2020/12/03 18:06:44;;;;;;;31.03;18.47;;;13.10;47.40;;;;;;5001873;28;20213;-59
2020/12/03 18:09:10;;;;;;;34.50;18.17;;;13.10;47.40;;;;;;5000700;28;20566;-60
2020/12/03 18:11:35;;;;;;;30.63;16.77;;;13.10;47.30;;;;;;5001588;28;20200;-59
2020/12/03 18:14:02;;;;;;;29.97;17.43;;;13.10;47.80;;;;;;5002120;28;20186;-59
2020/12/03 18:16:29;;;;;;;31.73;16.27;;;13.10;48.40;;;;;;5001204;28;20297;-59
2020/12/03 18:18:57;;;;;;;31.33;16.70;;;13.20;49.30;;;;;;5002141;28;20749;-59
2020/12/03 18:21:24;;;;;;;28.63;16.47;;;13.20;48.40;;;;;;5000871;28;20653;-67
2020/12/03 18:23:51;;;;;;;26.73;16.57;;;13.20;49.30;;;;;;5016344;28;20193;-59
2020/12/03 18:26:31;;;;;;;25.70;16.20;;;13.30;48.60;;;;;;5001470;28;20977;-59
2020/12/03 18:29:04;;;;;;;23.47;15.77;;;13.30;48.30;;;;;;5000775;28;20189;-59
2020/12/03 18:31:40;;;;;;;21.40;14.93;;;13.20;47.80;;;;;;4998720;28;20804;-59
2020/12/03 18:34:07;;;;;;;27.13;15.27;;;13.30;48.40;;;;;;5001286;28;20189;-59
2020/12/03 18:36:34;;;;;;;26.83;15.77;;;13.20;47.10;;;;;;4999706;28;20259;-59
2020/12/03 18:39:00;;;;;;;24.33;14.73;;;13.30;48.30;;;;;;5000381;28;20244;-60
2020/12/03 18:41:28;;;;;;;24.40;15.30;;;13.30;48.50;;;;;;5000540;28;20182;-58
2020/12/03 18:43:53;;;;;;;22.60;14.73;;;13.30;48.80;;;;;;5001118;28;20665;-59
2020/12/03 18:46:19;;;;;;;26.73;15.90;;;13.30;48.20;;;;;;5000141;28;20199;-59
2020/12/03 18:48:45;;;;;;;26.80;14.87;;;13.20;47.30;;;;;;5000881;28;20191;-59
2020/12/03 18:51:10;;;;;;;26.70;15.93;;;13.20;47.10;;;;;;5000462;28;20913;-59
2020/12/03 18:53:36;;;;;;;30.03;16.37;;;13.20;47.30;;;;;;5005540;28;20196;-59
2020/12/03 18:56:05;;;;;;;25.30;16.30;;;13.20;47.70;;;;;;5004657;28;20694;-59
2020/12/03 18:58:31;;;;;;;29.40;16.30;;;13.20;47.30;;;;;;5005245;28;20242;-59
2020/12/03 19:01:02;;;;;;;23.10;14.87;;;13.20;46.90;;;;;;5000353;28;20187;-59
2020/12/03 19:03:33;;;;;;;26.73;14.80;;;13.30;47.40;;;;;;4999757;28;20223;-58
2020/12/03 19:05:58;;;;;;;25.70;14.93;;;13.30;46.70;;;;;;4999420;28;20189;-59
2020/12/03 19:08:25;;;;;;;24.23;15.20;;;13.30;46.90;;;;;;4999679;28;20230;-59
2020/12/03 19:10:51;;;;;;;22.47;14.13;;;13.30;46.50;;;;;;4998803;28;20764;-59
2020/12/03 19:13:17;;;;;;;23.27;14.43;;;13.30;47.10;;;;;;4998345;28;20213;-59
2020/12/03 19:15:43;;;;;;;23.23;14.47;;;13.40;47.00;;;;;;4999088;28;20186;-64
2020/12/03 19:18:09;;;;;;;23.03;14.47;;;13.40;45.80;;;;;;4997638;28;20600;-59
2020/12/03 19:20:36;;;;;;;25.60;14.80;;;13.40;47.30;;;;;;4996684;28;20194;-59
2020/12/03 19:23:02;;;;;;;23.33;13.70;;;13.40;47.00;;;;;;4998744;28;20244;-59
2020/12/03 19:25:27;;;;;;;19.23;13.23;;;13.40;47.10;;;;;;4999543;28;20197;-59
2020/12/03 19:27:53;;;;;;;24.37;14.07;;;13.40;46.90;;;;;;4998741;28;20280;-59
2020/12/03 19:30:19;;;;;;;24.23;14.60;;;13.40;46.70;;;;;;4998207;28;20681;-59
2020/12/03 19:32:44;;;;;;;21.50;14.00;;;13.40;46.70;;;;;;4999106;28;20224;-62
2020/12/03 19:35:12;;;;;;;21.37;14.27;;;13.40;46.70;;;;;;4997013;28;20191;-59
2020/12/03 19:37:38;;;;;;;20.50;13.37;;;13.40;46.50;;;;;;4998659;28;20213;-59
2020/12/03 19:40:05;;;;;;;20.10;13.27;;;13.30;45.90;;;;;;4997630;28;20189;-59
2020/12/03 19:42:31;;;;;;;20.10;13.03;;;13.30;46.70;;;;;;4993986;28;20683;-59
2020/12/03 19:44:57;;;;;;;18.13;12.90;;;13.40;46.70;;;;;;4998490;28;20198;-59
2020/12/03 19:47:25;;;;;;;19.17;12.90;;;13.50;46.80;;;;;;4997635;28;20226;-59
2020/12/03 19:49:52;;;;;;;19.23;13.33;;;13.50;46.20;;;;;;4996528;28;20265;-59
2020/12/03 19:52:19;;;;;;;17.53;12.67;;;13.40;46.60;;;;;;4998306;28;20870;-59
2020/12/03 19:54:45;;;;;;;20.90;13.73;;;13.40;46.30;;;;;;4981361;28;20193;-62
2020/12/03 19:57:11;;;;;;;20.47;13.00;;;13.40;46.40;;;;;;4998339;28;20636;-61
2020/12/03 19:59:37;;;;;;;17.47;11.90;;;13.40;46.40;;;;;;4997846;28;20181;-61
2020/12/03 20:02:03;;;;;;;17.43;12.60;;;13.50;46.40;;;;;;4998760;28;20679;-61
2020/12/03 20:04:29;;;;;;;23.47;13.67;;;13.40;46.20;;;;;;4998604;28;20194;-59
2020/12/03 20:06:55;;;;;;;17.30;11.83;;;13.40;45.30;;;;;;4996329;28;20636;-59
2020/12/03 20:09:20;;;;;;;17.63;12.43;;;13.40;46.40;;;;;;4997822;28;20217;-59
2020/12/03 20:11:46;;;;;;;19.00;11.87;;;13.50;46.30;;;;;;4998567;28;20268;-61
2020/12/03 20:14:12;;;;;;;18.43;12.53;;;13.50;46.20;;;;;;4998450;28;20174;-61
2020/12/03 20:16:38;;;;;;;16.80;11.03;;;13.50;46.30;;;;;;4998279;28;20757;-62
2020/12/03 20:19:04;;;;;;;19.50;11.80;;;13.50;46.30;;;;;;4997620;28;20186;-62
2020/12/03 20:21:32;;;;;;;17.77;11.87;;;13.60;48.40;;;;;;4997773;28;20718;-61
2020/12/03 20:24:00;;;;;;;18.27;11.40;;;13.70;49.70;;;;;;4998549;28;20174;-61
2020/12/03 20:26:26;;;;;;;20.70;11.57;;;13.80;48.60;;;;;;4998626;28;20876;-61
2020/12/03 20:28:52;;;;;;;24.83;12.67;;;13.70;49.30;;;;;;4997823;28;20279;-60
2020/12/03 20:31:18;;;;;;;17.70;11.53;;;13.70;49.20;;;;;;4997476;28;20185;-61
2020/12/03 20:33:44;;;;;;;16.00;11.50;;;13.80;50.00;;;;;;4998069;28;20735;-61
2020/12/03 20:36:14;;;;;;;17.30;11.33;;;13.80;49.20;;;;;;4997991;28;20731;-61
2020/12/03 20:38:40;;;;;;;18.00;11.63;;;13.80;49.10;;;;;;4998386;28;20196;-61
2020/12/03 20:41:06;;;;;;;17.80;11.57;;;13.80;49.30;;;;;;4997673;28;20186;-61
2020/12/03 20:43:31;;;;;;;18.87;12.00;;;13.80;49.00;;;;;;4997717;28;20970;-61
2020/12/03 20:45:57;;;;;;;20.90;11.07;;;13.90;49.30;;;;;;4997967;28;20194;-61
2020/12/03 20:48:23;;;;;;;18.47;10.60;;;13.90;49.80;;;;;;4998351;28;20213;-61
2020/12/03 20:50:48;;;;;;;23.70;12.23;;;14.00;49.30;;;;;;4997138;28;20794;-62
2020/12/03 20:53:17;;;;;;;20.43;11.40;;;13.90;49.10;;;;;;4998546;28;20306;-61
2020/12/03 20:55:46;;;;;;;21.50;11.13;;;13.90;49.20;;;;;;4998339;28;20257;-61
2020/12/03 20:58:13;;;;;;;21.60;12.10;;;13.90;49.20;;;;;;4997666;28;20727;-60
2020/12/03 21:00:39;;;;;;;16.27;10.93;;;13.90;49.90;;;;;;4996437;28;20658;-61
2020/12/03 21:03:05;;;;;;;17.43;10.67;;;13.90;49.30;;;;;;4997805;28;20679;-61
2020/12/03 21:05:30;;;;;;;19.63;10.90;;;13.90;49.50;;;;;;4997837;28;20185;-61
2020/12/03 21:07:56;;;;;;;20.47;10.13;;;13.90;49.00;;;;;;4998422;28;20879;-61
2020/12/03 21:10:22;;;;;;;17.20;10.90;;;13.90;49.00;;;;;;4997262;28;21053;-61
2020/12/03 21:12:47;;;;;;;15.43;10.17;;;13.90;48.50;;;;;;4996777;28;20215;-62
2020/12/03 21:15:14;;;;;;;16.83;10.30;;;13.90;48.50;;;;;;4997874;28;20200;-61
2020/12/03 21:17:40;;;;;;;17.87;10.60;;;13.90;48.30;;;;;;4996454;28;20207;-61
2020/12/03 21:20:06;;;;;;;19.30;10.13;;;13.90;48.50;;;;;;4999805;28;20187;-61
2020/12/03 21:22:32;;;;;;;15.43;9.70;;;13.80;48.10;;;;;;5001769;28;20659;-68
2020/12/03 21:24:58;;;;;;;15.53;10.30;;;13.80;48.70;;;;;;5001602;28;20837;-61
2020/12/03 21:27:23;;;;;;;17.47;10.07;;;13.90;48.60;;;;;;5000999;28;20234;-61
2020/12/03 21:29:49;;;;;;;15.37;10.27;;;13.90;48.00;;;;;;5000537;28;21030;-61
2020/12/03 21:32:15;;;;;;;16.97;10.23;;;13.80;47.70;;;;;;4999939;28;20222;-61
2020/12/03 21:34:40;;;;;;;16.60;10.83;;;13.80;48.00;;;;;;5000118;28;20222;-61
2020/12/03 21:37:06;;;;;;;17.33;11.00;;;13.90;47.90;;;;;;4999971;28;20221;-60
2020/12/03 21:39:32;;;;;;;21.17;11.50;;;13.90;47.90;;;;;;4999802;28;20281;-60
2020/12/03 21:41:57;;;;;;;16.17;11.07;;;13.80;47.90;;;;;;5001014;28;20190;-61
2020/12/03 21:44:23;;;;;;;20.00;11.00;;;13.80;47.70;;;;;;4999832;28;20172;-61
2020/12/03 21:46:49;;;;;;;21.00;11.97;;;13.80;47.60;;;;;;5000081;28;20224;-61
2020/12/03 21:49:16;;;;;;;21.17;12.03;;;13.80;47.10;;;;;;5001620;28;20198;-61
2020/12/03 21:51:42;;;;;;;20.50;11.07;;;13.70;47.40;;;;;;5001331;28;20568;-61
2020/12/03 21:54:08;;;;;;;21.97;11.50;;;13.80;47.80;;;;;;5000009;28;20190;-61
2020/12/03 21:56:34;;;;;;;18.17;11.07;;;13.70;47.50;;;;;;5000471;28;20774;-61
2020/12/03 21:58:59;;;;;;;23.93;12.13;;;13.70;47.40;;;;;;4998613;28;20199;-60
2020/12/03 22:01:25;;;;;;;20.37;10.93;;;13.70;47.20;;;;;;5000776;28;20211;-61
2020/12/03 22:03:51;;;;;;;21.47;10.97;;;13.70;47.40;;;;;;5002699;28;20866;-60
2020/12/03 22:06:18;;;;;;;19.57;10.43;;;13.70;47.20;;;;;;5004431;28;20717;-61
2020/12/03 22:08:43;;;;;;;19.47;10.23;;;13.70;46.80;;;;;;5002164;28;20722;-61
2020/12/03 22:11:16;;;;;;;18.57;11.13;;;13.70;46.80;;;;;;5001803;28;20187;-60
2020/12/03 22:13:42;;;;;;;19.07;11.10;;;13.60;47.00;;;;;;5001642;28;20711;-61
2020/12/03 22:16:08;;;;;;;19.77;10.37;;;13.60;46.90;;;;;;5001885;28;20186;-60
2020/12/03 22:18:33;;;;;;;15.07;10.50;;;13.60;47.00;;;;;;5001767;28;20854;-61
2020/12/03 22:20:59;;;;;;;17.57;11.00;;;13.60;46.90;;;;;;5000798;28;20184;-61
2020/12/03 22:23:24;;;;;;;21.50;11.10;;;13.50;47.10;;;;;;5001970;28;20223;-60
2020/12/03 22:25:50;;;;;;;19.87;10.70;;;13.50;47.20;;;;;;5001275;28;20559;-61
2020/12/03 22:28:16;;;;;;;18.63;9.90;;;13.50;47.10;;;;;;5001422;28;20206;-61
2020/12/03 22:30:41;;;;;;;16.67;10.17;;;13.50;47.20;;;;;;5002162;28;20292;-60
2020/12/03 22:33:07;;;;;;;15.63;9.93;;;13.50;47.10;;;;;;5001811;28;20211;-61
2020/12/03 22:35:33;;;;;;;18.83;10.50;;;13.50;47.00;;;;;;5001369;28;20190;-61
2020/12/03 22:37:59;;;;;;;17.63;10.33;;;13.50;46.90;;;;;;5001501;28;20209;-61
2020/12/03 22:40:25;;;;;;;16.90;10.03;;;13.40;47.00;;;;;;5001673;28;21018;-61
2020/12/03 22:42:50;;;;;;;16.50;10.73;;;13.40;47.10;;;;;;5001328;28;20186;-61
2020/12/03 22:45:16;;;;;;;19.13;10.83;;;13.40;46.70;;;;;;5001747;28;20688;-61
2020/12/03 22:47:46;;;;;;;17.40;9.33;;;13.30;47.20;;;;;;5001647;28;20230;-60
2020/12/03 22:50:11;;;;;;;16.90;9.63;;;13.30;47.10;;;;;;5000770;28;20225;-61
2020/12/03 22:52:37;;;;;;;16.10;9.97;;;13.30;47.20;;;;;;5001255;28;20210;-60
2020/12/03 22:55:03;;;;;;;17.90;10.00;;;13.30;46.80;;;;;;5000858;28;20185;-61
2020/12/03 22:57:28;;;;;;;15.73;9.33;;;13.20;47.10;;;;;;5000156;28;20786;-60
2020/12/03 22:59:54;;;;;;;14.30;8.97;;;13.20;47.40;;;;;;5000304;28;20193;-61
2020/12/03 23:02:21;;;;;;;15.30;9.20;;;13.30;47.30;;;;;;5000025;28;20183;-61
2020/12/03 23:04:46;;;;;;;14.63;9.23;;;13.20;47.30;;;;;;4999864;28;20197;-61
2020/12/03 23:07:12;;;;;;;15.73;8.47;;;13.20;47.60;;;;;;4999301;28;20227;-61
2020/12/03 23:09:38;;;;;;;14.83;9.33;;;13.20;47.20;;;;;;4999471;28;21049;-61
2020/12/03 23:12:04;;;;;;;15.67;9.10;;;13.20;47.30;;;;;;4998974;28;20205;-61
2020/12/03 23:14:29;;;;;;;12.80;7.73;;;13.20;47.40;;;;;;4999328;28;20186;-61
2020/12/03 23:17:07;;;;;;;15.10;8.67;;;13.20;47.30;;;;;;4999252;28;20287;-62
2020/12/03 23:19:37;;;;;;;13.77;8.40;;;13.20;47.00;;;;;;4998968;28;20681;-61
2020/12/03 23:22:04;;;;;;;16.73;8.83;;;13.20;47.20;;;;;;4997951;28;20255;-61
2020/12/03 23:24:30;;;;;;;16.50;9.33;;;13.10;47.10;;;;;;4999433;28;20276;-61
2020/12/03 23:26:56;;;;;;;14.77;9.20;;;13.10;47.20;;;;;;4998716;28;20218;-60
2020/12/03 23:29:22;;;;;;;13.97;8.47;;;13.20;47.30;;;;;;4997884;28;20207;-62
2020/12/03 23:31:47;;;;;;;15.43;9.80;;;13.10;46.70;;;;;;4999018;28;20259;-61
2020/12/03 23:34:13;;;;;;;14.70;9.57;;;13.10;47.00;;;;;;4999144;28;20188;-61
2020/12/03 23:36:39;;;;;;;13.30;8.90;;;13.10;46.90;;;;;;4998677;28;20299;-59
2020/12/03 23:39:04;;;;;;;14.47;8.83;;;13.10;47.00;;;;;;4998921;28;20191;-59
2020/12/03 23:41:30;;;;;;;15.30;9.37;;;13.00;46.90;;;;;;4998160;28;20186;-59
2020/12/03 23:43:56;;;;;;;14.03;10.03;;;13.00;47.00;;;;;;4998823;28;21024;-59
2020/12/03 23:46:21;;;;;;;14.57;9.40;;;13.00;47.10;;;;;;4999249;28;20194;-59
2020/12/03 23:48:47;;;;;;;15.37;9.03;;;13.00;47.20;;;;;;4998282;28;20195;-59
2020/12/03 23:51:17;;;;;;;14.27;8.97;;;13.00;46.80;;;;;;4998865;28;20204;-59
2020/12/03 23:53:42;;;;;;;16.00;9.47;;;13.00;46.90;;;;;;4999380;28;20216;-59
2020/12/03 23:56:08;;;;;;;15.83;10.00;;;13.00;47.00;;;;;;4998118;28;20227;-59
2020/12/03 23:58:34;;;;;;;13.63;9.30;;;13.00;46.80;;;;;;4998502;28;20205;-59
